Time;durP1;ratioP1;P1;durP2;ratioP2;P2;SDS_P1;SDS_P2;PMS_P1;PMS_P2;Temp;Humidity;BMP_temperature;BMP_pressure;BME280_temperature;BME280_humidity;BME280_pressure;Samples;Min_cycle;Max_cycle;Signal;HPM_P1;HPM_P2
2021/07/18 00:00:25;;;;;;;11.85;10.73;;;;;;;23.71;72.70;100357.34;4947363;28;102474;-50
2021/07/18 00:02:52;;;;;;;11.35;10.35;;;;;;;23.69;72.89;100346.63;4939183;28;102595;-50
2021/07/18 00:05:18;;;;;;;11.75;10.63;;;;;;;23.69;72.65;100346.63;4942881;28;103616;-50
2021/07/18 00:07:45;;;;;;;11.55;10.45;;;;;;;23.70;72.74;100344.66;4943559;28;102432;-49
2021/07/18 00:10:14;;;;;;;12.05;10.82;;;;;;;23.71;72.77;100346.25;4938609;28;104869;-50
2021/07/18 00:12:41;;;;;;;11.13;10.13;;;;;;;23.70;72.86;100345.44;4947285;28;102714;-50
2021/07/18 00:15:11;;;;;;;11.13;10.13;;;;;;;23.69;72.89;100343.84;4943348;28;103959;-49
2021/07/18 00:17:44;;;;;;;11.20;10.20;;;;;;;23.69;72.98;100349.41;4930928;28;102748;-50
2021/07/18 00:20:14;;;;;;;12.18;11.00;;;;;;;23.70;72.97;100353.78;4950457;28;102144;-49
2021/07/18 00:22:41;;;;;;;11.02;10.02;;;;;;;23.70;72.87;100355.75;4933881;28;102218;-50
2021/07/18 00:25:10;;;;;;;10.70;9.70;;;;;;;23.69;72.71;100354.97;4945606;28;104076;-50
2021/07/18 00:27:39;;;;;;;11.63;10.52;;;;;;;23.69;72.89;100352.19;4946148;28;102208;-50
2021/07/18 00:30:08;;;;;;;11.73;10.60;;;;;;;23.70;72.92;100356.56;4944555;28;102411;-51
2021/07/18 00:32:35;;;;;;;11.63;10.43;;;;;;;23.69;72.70;100360.53;4947561;28;102797;-50
2021/07/18 00:35:03;;;;;;;10.65;9.65;;;;;;;23.70;72.88;100356.56;4938024;28;102367;-50
2021/07/18 00:37:29;;;;;;;11.00;9.90;;;;;;;23.69;72.98;100343.84;4941179;28;102775;-50
2021/07/18 00:39:56;;;;;;;10.65;9.65;;;;;;;23.70;72.77;100351.00;4953844;28;102665;-50
2021/07/18 00:42:22;;;;;;;10.25;9.38;;;;;;;23.70;72.83;100351.00;4954408;28;102612;-50
2021/07/18 00:44:50;;;;;;;10.80;9.90;;;;;;;23.69;72.77;100346.63;4939988;28;104041;-50
2021/07/18 00:47:18;;;;;;;11.18;10.07;;;;;;;23.70;72.68;100355.75;4948613;28;102393;-50
2021/07/18 00:49:44;;;;;;;10.80;9.82;;;;;;;23.69;72.61;100354.13;4955755;28;102463;-50
2021/07/18 00:52:11;;;;;;;10.93;9.82;;;;;;;23.70;72.64;100367.69;4946124;28;102732;-51
2021/07/18 00:54:37;;;;;;;10.75;9.85;;;;;;;23.69;72.89;100365.25;4949816;28;102795;-50
2021/07/18 00:57:06;;;;;;;10.48;9.57;;;;;;;23.69;72.55;100354.97;4938703;28;102223;-51
2021/07/18 00:59:34;;;;;;;11.10;10.00;;;;;;;23.69;73.03;100356.91;4944766;28;102543;-50
2021/07/18 01:02:02;;;;;;;11.38;10.38;;;;;;;23.70;72.96;100364.09;4946468;28;102197;-50
2021/07/18 01:04:29;;;;;;;10.68;9.68;;;;;;;23.69;72.80;100357.75;4939695;28;104247;-50
2021/07/18 01:06:55;;;;;;;10.43;9.52;;;;;;;23.70;72.85;100361.31;4942905;28;102336;-50
2021/07/18 01:09:23;;;;;;;10.35;9.35;;;;;;;23.69;72.95;100366.06;4945560;28;102507;-50
2021/07/18 01:12:04;;;;;;;11.45;10.25;;;;;;;23.70;72.99;100355.75;4945931;28;102763;-50
2021/07/18 01:14:31;;;;;;;11.18;10.18;;;;;;;23.70;72.87;100364.09;4944375;28;103253;-50
2021/07/18 01:16:59;;;;;;;10.95;9.95;;;;;;;23.68;72.75;100364.44;4945120;28;102500;-50
2021/07/18 01:19:29;;;;;;;10.70;9.80;;;;;;;23.69;72.78;100359.69;4944559;28;103378;-50
2021/07/18 01:21:59;;;;;;;10.45;9.52;;;;;;;23.69;72.97;100360.53;4946928;28;102613;-50
2021/07/18 01:24:27;;;;;;;10.45;9.52;;;;;;;23.69;72.98;100366.06;4947659;28;103964;-50
2021/07/18 01:26:54;;;;;;;10.48;9.48;;;;;;;23.69;72.73;100360.53;4946568;28;102416;-50
2021/07/18 01:29:21;;;;;;;10.65;9.73;;;;;;;23.68;73.15;100358.88;4948991;28;102543;-50
2021/07/18 01:31:47;;;;;;;10.52;9.63;;;;;;;23.69;72.90;100357.75;4948712;28;102143;-50
2021/07/18 01:34:14;;;;;;;10.43;9.52;;;;;;;23.69;72.80;100370.81;4942128;28;103941;-50
2021/07/18 01:36:41;;;;;;;10.32;9.43;;;;;;;23.68;72.62;100364.44;4949503;28;102180;-50
2021/07/18 01:39:11;;;;;;;10.52;9.45;;;;;;;23.70;73.08;100372.44;4948746;28;102179;-50
2021/07/18 01:41:38;;;;;;;10.38;9.48;;;;;;;23.68;73.06;100364.44;4956488;28;102130;-49
2021/07/18 01:44:07;;;;;;;9.80;8.70;;;;;;;23.69;72.81;100368.84;4953814;28;103885;-50
2021/07/18 01:46:35;;;;;;;10.38;9.48;;;;;;;23.69;72.90;100377.19;4949232;28;102684;-49
2021/07/18 01:49:05;;;;;;;10.02;9.13;;;;;;;23.68;72.87;100380.31;4943269;28;102383;-50
2021/07/18 01:51:31;;;;;;;10.07;9.07;;;;;;;23.69;72.80;100382.75;4950038;28;102935;-50
2021/07/18 01:54:01;;;;;;;10.68;9.68;;;;;;;23.69;72.76;100374.41;4946015;28;104056;-50
2021/07/18 01:56:29;;;;;;;10.40;9.48;;;;;;;23.69;72.78;100370.81;4942615;28;102965;-49
2021/07/18 01:58:56;;;;;;;10.07;9.18;;;;;;;23.68;72.75;100372.78;4952390;28;102426;-50
2021/07/18 02:01:26;;;;;;;10.25;9.23;;;;;;;23.68;72.71;100370.00;4945779;28;102775;-50
2021/07/18 02:03:53;;;;;;;9.88;9.07;;;;;;;23.68;72.72;100370.00;4947726;28;104350;-50
2021/07/18 02:06:22;;;;;;;9.52;8.73;;;;;;;23.68;73.06;100371.97;4937435;28;102457;-50
2021/07/18 02:08:49;;;;;;;19.10;10.10;;;;;;;23.68;72.88;100372.78;4947937;28;102235;-49
2021/07/18 02:11:17;;;;;;;10.43;9.53;;;;;;;23.67;72.63;100368.41;4932727;28;102350;-50
2021/07/18 02:13:47;;;;;;;10.47;9.47;;;;;;;23.68;73.07;100372.78;4956069;28;103875;-51
2021/07/18 02:16:13;;;;;;;9.73;8.88;;;;;;;23.67;72.81;100362.84;4946788;28;102165;-50
2021/07/18 02:19:06;;;;;;;10.75;9.75;;;;;;;23.68;73.08;100369.22;4946552;28;101986;-50
2021/07/18 02:21:33;;;;;;;9.95;9.05;;;;;;;23.67;72.66;100368.41;4940614;28;102311;-49
2021/07/18 02:23:59;;;;;;;10.27;9.32;;;;;;;23.68;72.79;100385.88;4950350;28;104281;-50
2021/07/18 02:26:27;;;;;;;9.63;8.73;;;;;;;23.68;72.76;100378.34;4954258;28;102302;-50
2021/07/18 02:28:58;;;;;;;9.50;8.70;;;;;;;23.68;73.01;100378.34;4948397;28;102562;-50
2021/07/18 02:31:26;;;;;;;8.98;8.27;;;;;;;23.68;72.99;100381.13;4950252;28;102495;-50
2021/07/18 02:33:52;;;;;;;10.25;9.30;;;;;;;23.66;72.87;100377.88;4945412;28;103911;-50
2021/07/18 02:36:20;;;;;;;9.68;8.75;;;;;;;23.67;72.81;100373.97;4946113;28;102428;-50
2021/07/18 02:38:47;;;;;;;9.38;8.57;;;;;;;23.68;72.85;100380.31;4941401;28;102531;-50
2021/07/18 02:41:13;;;;;;;9.38;8.57;;;;;;;23.67;72.99;100373.97;4949700;28;102482;-49
2021/07/18 02:43:40;;;;;;;9.27;8.48;;;;;;;23.67;73.12;100385.06;4927289;28;102893;-49
2021/07/18 02:46:08;;;;;;;9.43;8.63;;;;;;;23.68;72.92;100383.91;4958263;28;102614;-50
2021/07/18 02:48:35;;;;;;;9.80;9.00;;;;;;;23.68;73.10;100386.66;4949569;28;102967;-50
2021/07/18 02:51:02;;;;;;;9.40;8.63;;;;;;;23.69;73.00;100387.47;4947628;28;102600;-50
2021/07/18 02:53:29;;;;;;;9.45;8.75;;;;;;;23.68;73.08;100381.13;4945695;28;104358;-50
2021/07/18 02:55:55;;;;;;;9.18;8.48;;;;;;;23.67;73.05;100385.06;4953695;28;102449;-50
2021/07/18 02:58:22;;;;;;;9.57;8.63;;;;;;;23.68;73.15;100385.88;4948389;28;102782;-50
2021/07/18 03:00:51;;;;;;;9.52;8.57;;;;;;;23.67;73.12;100387.84;4947831;28;102624;-50
2021/07/18 03:03:19;;;;;;;9.20;8.40;;;;;;;23.68;73.00;100391.44;4945388;28;103970;-49
2021/07/18 03:05:46;;;;;;;9.43;8.48;;;;;;;23.67;72.98;100390.63;4942746;28;102402;-50
2021/07/18 03:08:13;;;;;;;9.82;8.93;;;;;;;23.67;73.04;100389.84;4941381;28;101988;-50
2021/07/18 03:10:40;;;;;;;9.63;8.60;;;;;;;23.67;72.89;100385.06;4946987;28;102455;-50
2021/07/18 03:13:07;;;;;;;9.25;8.35;;;;;;;23.67;73.18;100385.06;4945354;28;103876;-50
2021/07/18 03:15:34;;;;;;;9.35;8.55;;;;;;;23.67;73.00;100385.06;4947840;28;103292;-50
2021/07/18 03:18:02;;;;;;;9.75;8.85;;;;;;;23.66;73.03;100382.66;4945052;28;102381;-50
2021/07/18 03:20:29;;;;;;;9.35;8.50;;;;;;;23.67;72.71;100385.06;4947120;28;102372;-49
2021/07/18 03:22:56;;;;;;;9.60;8.77;;;;;;;23.67;72.91;100385.06;4939787;28;103931;-49
2021/07/18 03:25:23;;;;;;;9.55;8.75;;;;;;;23.67;72.95;100385.06;4947879;28;102422;-49
2021/07/18 03:27:49;;;;;;;9.57;8.73;;;;;;;23.67;72.91;100387.84;4946827;28;102453;-49
2021/07/18 03:30:18;;;;;;;8.60;7.90;;;;;;;23.67;73.02;100387.06;4946749;28;102206;-50
2021/07/18 03:32:45;;;;;;;9.07;8.18;;;;;;;23.67;73.06;100382.31;4942839;28;102782;-50
2021/07/18 03:35:13;;;;;;;8.82;8.02;;;;;;;23.67;72.68;100382.31;4941279;28;102406;-50
2021/07/18 03:37:41;;;;;;;8.40;7.70;;;;;;;23.67;72.66;100387.84;4945518;28;102717;-50
2021/07/18 03:40:10;;;;;;;8.30;7.57;;;;;;;23.69;73.01;100393.03;4953602;28;102197;-50
2021/07/18 03:42:37;;;;;;;9.23;8.43;;;;;;;23.68;72.89;100395.00;4946668;28;103996;-50
2021/07/18 03:45:07;;;;;;;9.77;8.87;;;;;;;23.67;72.73;100393.41;4928296;28;102719;-50
2021/07/18 03:47:34;;;;;;;9.10;8.27;;;;;;;23.68;73.13;100399.75;4942763;28;102410;-49
2021/07/18 03:50:00;;;;;;;9.10;8.30;;;;;;;23.68;72.81;100392.22;4945154;28;102411;-50
2021/07/18 03:52:27;;;;;;;8.82;8.13;;;;;;;23.69;72.87;100398.59;4956074;28;103510;-49
2021/07/18 03:54:55;;;;;;;9.02;8.15;;;;;;;23.68;73.07;100392.22;4955005;28;102523;-49
2021/07/18 03:57:21;;;;;;;8.97;8.07;;;;;;;23.69;72.97;100398.59;4951561;28;102031;-49
2021/07/18 03:59:48;;;;;;;8.52;7.82;;;;;;;23.69;72.95;100402.19;4945601;28;102469;-49
2021/07/18 04:02:15;;;;;;;9.10;8.27;;;;;;;23.69;73.13;100388.31;4943200;28;103663;-49
2021/07/18 04:04:42;;;;;;;8.45;7.72;;;;;;;23.70;72.71;100395.47;4936207;28;102588;-49
2021/07/18 04:07:08;;;;;;;8.55;7.85;;;;;;;23.69;72.85;100396.63;4935101;28;102040;-49
2021/07/18 04:09:35;;;;;;;8.68;7.95;;;;;;;23.70;72.86;100389.91;4940875;28;102274;-49
2021/07/18 04:12:04;;;;;;;9.05;8.25;;;;;;;23.70;72.87;100401.00;4948478;28;103910;-49
2021/07/18 04:14:33;;;;;;;8.57;7.68;;;;;;;23.71;72.63;100396.25;4946891;28;102570;-49
2021/07/18 04:16:59;;;;;;;8.80;7.95;;;;;;;23.71;72.65;100401.81;4942882;28;102066;-49
2021/07/18 04:19:26;;;;;;;8.93;8.13;;;;;;;23.71;72.82;100390.69;4939541;28;102096;-50
2021/07/18 04:21:53;;;;;;;8.60;7.80;;;;;;;23.71;72.91;100391.50;4943544;28;104136;-49
2021/07/18 04:24:20;;;;;;;8.80;8.00;;;;;;;23.72;72.93;100398.66;4945265;28;102537;-49
2021/07/18 04:26:46;;;;;;;8.80;8.10;;;;;;;23.72;73.06;100395.06;4945767;28;102366;-49
2021/07/18 04:29:15;;;;;;;8.40;7.70;;;;;;;23.72;73.08;100398.66;4942207;28;102408;-49
2021/07/18 04:31:41;;;;;;;8.50;7.78;;;;;;;23.72;73.02;100401.44;4951346;28;104376;-49
2021/07/18 04:34:08;;;;;;;8.70;8.00;;;;;;;23.72;72.79;100398.66;4942100;28;102123;-49
2021/07/18 04:36:34;;;;;;;8.90;8.10;;;;;;;23.74;73.00;100398.31;4928617;28;102333;-49
2021/07/18 04:39:01;;;;;;;8.82;8.13;;;;;;;23.74;72.80;100401.88;4935367;28;102540;-49
2021/07/18 04:41:29;;;;;;;8.98;8.15;;;;;;;23.75;72.86;100402.69;4942060;28;103747;-49
2021/07/18 04:43:56;;;;;;;8.33;7.73;;;;;;;23.76;72.77;100403.47;4936713;28;102000;-50
2021/07/18 04:46:24;;;;;;;8.48;7.75;;;;;;;23.76;72.55;100403.47;4926277;28;102389;-49
2021/07/18 04:48:50;;;;;;;8.95;8.10;;;;;;;23.74;73.03;100401.88;4953366;28;102284;-49
2021/07/18 04:51:17;;;;;;;9.60;8.70;;;;;;;23.76;72.64;100400.69;4950216;28;102761;-50
2021/07/18 04:53:44;;;;;;;8.77;8.07;;;;;;;23.76;73.13;100404.28;4938409;28;102156;-50
2021/07/18 04:56:11;;;;;;;9.32;8.50;;;;;;;23.76;72.70;100403.47;4952483;28;102342;-50
2021/07/18 04:58:37;;;;;;;9.93;8.93;;;;;;;23.77;72.83;100394.00;4945775;28;102511;-50
2021/07/18 05:01:05;;;;;;;9.77;8.77;;;;;;;23.78;72.93;100407.50;4945622;28;104200;-50
2021/07/18 05:03:33;;;;;;;9.30;8.60;;;;;;;23.78;72.59;100409.47;4942062;28;102664;-50
2021/07/18 05:06:00;;;;;;;9.30;8.47;;;;;;;23.79;72.94;100402.75;4949213;28;102043;-50
2021/07/18 05:08:26;;;;;;;9.32;8.52;;;;;;;23.79;72.73;100408.31;4962132;28;102774;-50
2021/07/18 05:10:53;;;;;;;9.30;8.40;;;;;;;23.79;72.81;100402.75;4939158;28;103906;-50
2021/07/18 05:13:19;;;;;;;9.52;8.50;;;;;;;23.80;72.78;100398.78;4929122;28;102330;-51
2021/07/18 05:15:46;;;;;;;9.30;8.50;;;;;;;23.80;72.72;100404.34;4945898;28;102083;-51
2021/07/18 05:18:15;;;;;;;9.00;8.20;;;;;;;23.81;72.96;100409.56;4951470;28;103580;-50
2021/07/18 05:20:44;;;;;;;9.15;8.35;;;;;;;23.82;72.77;100407.56;4947888;28;103896;-50
2021/07/18 05:23:11;;;;;;;9.00;8.10;;;;;;;23.83;72.77;100411.94;4945975;28;102360;-50
2021/07/18 05:25:38;;;;;;;9.10;8.30;;;;;;;23.84;72.68;100410.75;4948624;28;102447;-60
2021/07/18 05:28:06;;;;;;;9.25;8.35;;;;;;;23.86;72.72;100414.00;4947600;28;103575;-50
2021/07/18 05:30:32;;;;;;;9.75;8.85;;;;;;;23.86;72.82;100402.88;4959363;28;104011;-50
2021/07/18 05:32:59;;;;;;;9.27;8.45;;;;;;;23.87;72.72;100410.03;4930328;28;103069;-51
2021/07/18 05:35:26;;;;;;;8.80;8.10;;;;;;;23.87;72.48;100410.03;4949325;28;102052;-50
2021/07/18 05:37:54;;;;;;;8.75;7.95;;;;;;;23.89;72.74;100410.47;4942537;28;102450;-50
2021/07/18 05:40:20;;;;;;;9.30;8.47;;;;;;;23.90;72.77;100407.31;4953033;28;102511;-50
2021/07/18 05:42:47;;;;;;;9.18;8.38;;;;;;;23.92;72.71;100412.53;4952368;28;102382;-50
2021/07/18 05:45:14;;;;;;;9.57;8.30;;;;;;;23.92;72.76;100413.31;4945424;28;102479;-51
2021/07/18 05:47:41;;;;;;;10.27;9.40;;;;;;;23.93;73.02;100414.94;4953014;28;102405;-50
2021/07/18 05:50:08;;;;;;;9.10;8.38;;;;;;;23.94;72.63;100419.31;4961394;28;103710;-50
2021/07/18 05:52:36;;;;;;;9.73;8.82;;;;;;;23.97;72.70;100426.09;4949781;28;102692;-50
2021/07/18 05:55:05;;;;;;;9.18;8.48;;;;;;;23.99;72.74;100426.56;4947579;28;102517;-50
2021/07/18 05:57:32;;;;;;;9.00;8.30;;;;;;;23.99;72.55;100429.34;4957075;28;102317;-52
2021/07/18 05:59:58;;;;;;;9.15;8.25;;;;;;;24.01;72.38;100438.09;4942711;28;104083;-51
2021/07/18 06:02:25;;;;;;;9.45;8.55;;;;;;;24.02;72.67;100436.09;4948648;28;103189;-50
2021/07/18 06:04:52;;;;;;;9.38;8.60;;;;;;;24.03;72.63;100440.53;4949172;28;102684;-51
2021/07/18 06:07:18;;;;;;;9.75;8.75;;;;;;;24.04;72.61;100436.56;4940599;28;102642;-50
2021/07/18 06:09:45;;;;;;;10.32;9.32;;;;;;;24.05;72.67;100433.41;4945590;28;103797;-50
2021/07/18 06:12:13;;;;;;;9.90;9.10;;;;;;;24.06;72.62;100432.25;4935610;28;102520;-51
2021/07/18 06:14:41;;;;;;;10.35;9.43;;;;;;;24.06;72.72;100429.47;4937577;28;102657;-50
2021/07/18 06:17:08;;;;;;;9.95;9.05;;;;;;;24.08;72.58;100442.97;4955551;28;102401;-51
2021/07/18 06:19:34;;;;;;;10.13;9.10;;;;;;;24.09;72.52;100434.28;4932408;28;103942;-51
2021/07/18 06:22:00;;;;;;;10.13;9.23;;;;;;;24.10;72.49;100429.53;4947510;28;102132;-50
2021/07/18 06:24:27;;;;;;;9.98;9.07;;;;;;;24.12;72.42;100427.16;4926669;28;102628;-50
2021/07/18 06:26:54;;;;;;;10.05;9.18;;;;;;;24.13;72.16;100429.59;4949152;28;104073;-50
2021/07/18 06:29:22;;;;;;;9.52;8.65;;;;;;;24.13;72.13;100418.47;4946983;28;104058;-50
2021/07/18 06:31:48;;;;;;;10.13;9.13;;;;;;;24.14;72.31;100425.63;4948627;28;102102;-50
2021/07/18 06:34:15;;;;;;;9.27;8.48;;;;;;;24.15;72.19;100421.66;4949225;28;103646;-51
2021/07/18 06:36:41;;;;;;;10.32;9.30;;;;;;;24.18;72.42;100425.69;4948429;28;102445;-50
2021/07/18 06:39:08;;;;;;;10.30;9.40;;;;;;;24.19;72.49;100421.72;4947199;28;104003;-50
2021/07/18 06:41:34;;;;;;;10.02;9.13;;;;;;;24.18;72.21;100420.94;4949564;28;102256;-50
2021/07/18 06:44:02;;;;;;;10.10;9.13;;;;;;;24.21;72.13;100425.75;4949441;28;102092;-50
2021/07/18 06:46:30;;;;;;;10.80;9.80;;;;;;;24.22;72.34;100427.34;4947664;28;102220;-50
2021/07/18 06:48:57;;;;;;;10.13;9.13;;;;;;;24.25;72.39;100419.44;4948700;28;104297;-50
2021/07/18 06:51:24;;;;;;;10.25;9.25;;;;;;;24.26;72.25;100427.41;4946428;28;102284;-50
2021/07/18 06:53:50;;;;;;;9.80;8.77;;;;;;;24.29;72.45;100431.44;4946022;28;102529;-50
2021/07/18 06:56:17;;;;;;;10.57;9.50;;;;;;;24.30;72.22;100422.72;4952111;28;104242;-50
2021/07/18 06:58:44;;;;;;;9.98;9.18;;;;;;;24.30;72.33;100425.50;4945041;28;102750;-50
2021/07/18 07:01:10;;;;;;;9.65;8.65;;;;;;;24.32;72.10;100425.13;4943124;28;104648;-50
2021/07/18 07:03:38;;;;;;;10.45;9.48;;;;;;;24.32;72.32;100427.91;4929189;28;102676;-50
2021/07/18 07:06:05;;;;;;;9.73;8.82;;;;;;;24.32;72.45;100425.13;4948015;28;102830;-50
2021/07/18 07:08:32;;;;;;;10.65;9.75;;;;;;;24.34;72.04;100431.13;4948326;28;103942;-51
2021/07/18 07:10:58;;;;;;;10.63;9.57;;;;;;;24.35;72.24;100424.41;4929947;28;102507;-50
2021/07/18 07:13:24;;;;;;;10.18;9.18;;;;;;;24.36;nan;100431.56;4945465;28;103532;-50
2021/07/18 07:15:51;;;;;;;10.43;9.52;;;;;;;24.36;71.91;100431.56;4947144;28;102381;-50
2021/07/18 07:18:18;;;;;;;11.55;10.52;;;;;;;24.36;71.78;100437.13;4949547;28;103894;-50
2021/07/18 07:20:46;;;;;;;11.10;10.15;;;;;;;24.35;72.04;100430.75;4948973;28;102012;-50
2021/07/18 07:23:13;;;;;;;10.73;9.73;;;;;;;24.35;71.96;100435.53;4947233;28;102546;-50
2021/07/18 07:25:40;;;;;;;10.35;9.38;;;;;;;24.37;71.99;100436.72;4927297;28;102369;-50
2021/07/18 07:28:06;;;;;;;11.15;10.10;;;;;;;24.38;72.25;100440.34;4938051;28;104606;-50
2021/07/18 07:30:36;;;;;;;11.30;10.30;;;;;;;24.37;71.84;100438.72;4948703;28;102164;-50
2021/07/18 07:33:03;;;;;;;10.77;9.88;;;;;;;24.38;72.07;100441.16;4949537;28;102639;-50
2021/07/18 07:35:30;;;;;;;10.80;9.80;;;;;;;24.38;72.13;100443.13;4944119;28;102208;-50
2021/07/18 07:37:58;;;;;;;11.45;10.45;;;;;;;24.40;71.91;100438.00;4947716;28;103895;-50
2021/07/18 07:40:24;;;;;;;10.55;9.57;;;;;;;24.41;72.16;100440.41;4930316;28;102338;-50
2021/07/18 07:42:51;;;;;;;10.50;9.60;;;;;;;24.43;71.97;100448.41;4952220;28;102331;-50
2021/07/18 07:45:17;;;;;;;11.02;9.88;;;;;;;24.45;72.19;100443.25;4945592;28;105582;-50
2021/07/18 07:47:44;;;;;;;11.15;10.13;;;;;;;24.44;71.89;100444.44;4927622;28;103939;-50
2021/07/18 07:50:13;;;;;;;11.15;10.15;;;;;;;24.44;71.77;100452.78;4948272;28;102500;-50
2021/07/18 07:52:40;;;;;;;12.30;10.20;;;;;;;24.45;71.93;100448.81;4927941;28;102835;-50
2021/07/18 07:55:09;;;;;;;10.40;9.40;;;;;;;24.45;71.92;100446.84;4943749;28;102589;-50
2021/07/18 07:57:36;;;;;;;10.98;9.88;;;;;;;24.48;71.96;100450.84;4942192;28;104211;-50
2021/07/18 08:00:05;;;;;;;11.50;10.35;;;;;;;24.50;71.95;100453.28;4928057;28;102700;-50
2021/07/18 08:02:32;;;;;;;10.45;9.55;;;;;;;24.51;72.01;100454.88;4944015;28;102195;-50
2021/07/18 08:04:58;;;;;;;10.88;9.88;;;;;;;24.52;71.80;100448.94;4944856;28;103634;-50
2021/07/18 08:07:25;;;;;;;10.43;9.48;;;;;;;24.52;71.94;100448.94;4933921;28;104060;-50
2021/07/18 08:09:52;;;;;;;10.35;9.45;;;;;;;24.54;71.78;100443.00;4928621;28;102760;-50
2021/07/18 08:12:20;;;;;;;10.90;9.95;;;;;;;24.54;71.86;100441.03;4926789;28;103614;-50
2021/07/18 08:14:46;;;;;;;10.93;9.83;;;;;;;24.56;71.85;100452.59;4932523;28;103548;-50
2021/07/18 08:17:17;;;;;;;12.30;10.57;;;;;;;24.56;71.76;100441.47;4927991;28;104002;-50
2021/07/18 08:19:44;;;;;;;11.00;10.10;;;;;;;24.57;71.86;100448.63;4938003;28;102965;-51
2021/07/18 08:22:10;;;;;;;11.32;10.20;;;;;;;24.57;71.69;100447.84;4932234;28;103748;-50
2021/07/18 08:24:37;;;;;;;10.55;9.65;;;;;;;24.57;71.67;100448.63;4929294;28;102884;-51
2021/07/18 08:27:04;;;;;;;11.32;10.30;;;;;;;24.60;71.59;100452.66;4935621;28;102831;-50
2021/07/18 08:29:34;;;;;;;;;;;;;;;24.59;71.79;100448.25;4946579;28;102501;-50
2021/07/18 08:32:01;;;;;;;10.20;9.25;;;;;;;24.60;71.84;100445.09;4934017;28;102645;-50
2021/07/18 08:34:28;;;;;;;11.70;10.70;;;;;;;24.60;71.51;100447.88;4932895;28;102463;-51
2021/07/18 08:36:55;;;;;;;11.68;10.57;;;;;;;24.61;71.76;100443.91;4936946;28;102792;-50
2021/07/18 08:39:21;;;;;;;11.77;10.88;;;;;;;24.61;71.70;100437.56;4944294;28;102562;-50
2021/07/18 08:41:49;;;;;;;11.73;10.68;;;;;;;24.62;71.35;100444.72;4946065;28;102668;-50
2021/07/18 08:44:16;;;;;;;10.70;9.80;;;;;;;24.62;71.56;100441.94;4940552;28;102507;-50
2021/07/18 08:46:44;;;;;;;12.40;11.23;;;;;;;24.62;71.70;100437.16;4944521;28;103718;-50
2021/07/18 08:49:11;;;;;;;11.93;10.93;;;;;;;24.62;71.55;100434.38;4944283;28;102786;-50
2021/07/18 08:51:38;;;;;;;12.20;11.10;;;;;;;24.63;71.59;100432.41;4935724;28;102494;-51
2021/07/18 08:54:05;;;;;;;10.63;9.73;;;;;;;24.64;71.25;100431.25;4944536;28;102344;-51
2021/07/18 08:56:33;;;;;;;11.47;10.57;;;;;;;24.63;71.40;100427.66;4945147;28;104003;-51
2021/07/18 08:59:04;;;;;;;12.68;11.55;;;;;;;24.64;71.51;100425.69;4943596;28;102451;-50
2021/07/18 09:01:30;;;;;;;12.15;11.05;;;;;;;24.63;71.58;100424.06;4944018;28;102822;-50
2021/07/18 09:03:59;;;;;;;13.55;12.30;;;;;;;24.65;71.76;100421.72;4930992;28;102563;-51
2021/07/18 09:06:39;;;;;;;13.17;11.97;;;;;;;24.63;71.57;100424.88;4930562;28;103979;-50
2021/07/18 09:09:08;;;;;;;13.68;12.45;;;;;;;24.63;71.66;100429.63;4927568;28;102229;-51
2021/07/18 09:11:35;;;;;;;13.18;11.95;;;;;;;24.63;71.37;100430.44;4942835;28;102654;-50
2021/07/18 09:14:03;;;;;;;14.00;12.73;;;;;;;24.63;71.45;100419.31;4945970;28;102452;-50
2021/07/18 09:16:32;;;;;;;12.85;11.75;;;;;;;24.63;71.63;100422.09;4944350;28;103882;-51
2021/07/18 09:19:18;;;;;;;14.73;13.52;;;;;;;24.63;71.53;100419.31;4946289;28;102334;-50
2021/07/18 09:21:49;;;;;;;13.60;12.30;;;;;;;24.63;71.54;100418.50;4943439;28;102465;-50
2021/07/18 09:24:18;;;;;;;13.60;12.40;;;;;;;24.64;71.58;100414.56;4946569;28;102727;-50
2021/07/18 09:27:01;;;;;;;;;;;;;;;24.65;71.57;100411.38;4942922;28;103732;-50
2021/07/18 09:29:28;;;;;;;13.90;12.68;;;;;;;24.65;71.45;100413.38;4944066;28;102267;-50
2021/07/18 09:32:02;;;;;;;13.70;12.50;;;;;;;24.65;71.54;100411.38;4942449;28;103391;-50
2021/07/18 09:34:35;;;;;;;15.20;13.90;;;;;;;24.63;71.26;100413.75;4945660;28;102005;-51
2021/07/18 09:37:12;;;;;;;15.27;13.75;;;;;;;24.62;71.48;100409.34;4943815;28;102756;-50
2021/07/18 09:39:39;;;;;;;15.45;14.15;;;;;;;24.61;71.36;100410.53;4944510;28;102656;-50
2021/07/18 09:42:07;;;;;;;16.05;14.57;;;;;;;24.60;71.53;100414.50;4947296;28;102391;-50
2021/07/18 09:44:44;;;;;;;16.92;15.32;;;;;;;24.60;71.58;100413.69;4943210;28;102944;-50
2021/07/18 09:47:12;;;;;;;15.82;14.43;;;;;;;24.58;71.50;100410.47;4943257;28;104417;-50
2021/07/18 09:49:40;;;;;;;16.60;15.10;;;;;;;24.57;71.64;100412.47;4944530;28;102258;-50
2021/07/18 09:52:15;;;;;;;16.73;15.15;;;;;;;24.57;71.36;100409.69;4937180;28;102168;-51
2021/07/18 09:54:42;;;;;;;17.00;15.40;;;;;;;24.58;71.37;100416.84;4945262;28;102205;-50
2021/07/18 09:57:12;;;;;;;17.40;16.00;;;;;;;24.57;71.55;100414.44;4944946;28;103663;-50
2021/07/18 09:59:41;;;;;;;17.55;15.95;;;;;;;24.58;71.67;100404.91;4947633;28;102341;-50
2021/07/18 10:02:08;;;;;;;17.50;16.02;;;;;;;24.57;71.58;100406.91;4935801;28;102708;-51
2021/07/18 10:04:40;;;;;;;16.73;15.23;;;;;;;24.57;71.60;100409.69;4948629;28;102366;-50
2021/07/18 10:07:08;;;;;;;16.45;15.05;;;;;;;24.57;71.82;100415.25;4944657;28;103921;-51
2021/07/18 10:09:34;;;;;;;16.88;15.38;;;;;;;24.55;71.58;100411.22;4949277;28;102561;-50
2021/07/18 10:12:02;;;;;;;16.88;15.38;;;;;;;24.55;71.51;100411.22;4944931;28;102275;-50
2021/07/18 10:14:29;;;;;;;18.10;16.40;;;;;;;24.53;71.47;100405.25;4949402;28;102487;-50
2021/07/18 10:16:56;;;;;;;16.77;15.30;;;;;;;24.52;71.69;100409.97;4946260;28;103940;-50
2021/07/18 10:19:23;;;;;;;17.80;16.15;;;;;;;;;;4941752;28;102551;-50
2021/07/18 10:21:52;;;;;;;18.33;16.73;;;;;;;24.50;71.50;100404.00;4938670;28;103868;-50
2021/07/18 10:24:19;;;;;;;17.80;16.30;;;;;;;24.50;71.64;100401.22;4946341;28;102211;-51
2021/07/18 10:26:47;;;;;;;16.60;15.20;;;;;;;24.50;71.64;100409.56;4949927;28;103828;-51
2021/07/18 10:29:14;;;;;;;18.23;16.53;;;;;;;24.52;71.43;100412.75;4946945;28;102364;-50
2021/07/18 10:31:51;;;;;;;17.20;15.80;;;;;;;24.50;71.61;100406.78;4947628;28;102468;-50
2021/07/18 10:34:19;;;;;;;18.67;16.85;;;;;;;24.49;71.49;100407.13;4948344;28;103176;-53
2021/07/18 10:36:51;;;;;;;17.88;16.20;;;;;;;24.48;71.66;100403.56;4958356;28;102467;-50
2021/07/18 10:39:32;;;;;;;18.52;16.95;;;;;;;24.48;71.75;100398.00;4949970;28;102145;-50
2021/07/18 10:42:01;;;;;;;17.77;16.27;;;;;;;24.50;71.69;100397.66;4945599;28;102276;-50
2021/07/18 10:44:38;;;;;;;18.92;17.05;;;;;;;24.50;71.51;100394.84;4945146;28;102260;-50
2021/07/18 10:47:05;;;;;;;17.10;15.70;;;;;;;24.51;71.63;100394.47;4927739;28;103855;-50
2021/07/18 10:49:56;;;;;;;18.17;16.58;;;;;;;24.53;71.89;100391.34;4945237;28;102776;-50
2021/07/18 10:52:29;;;;;;;17.55;15.85;;;;;;;24.54;71.35;100396.50;4945916;28;102083;-51
2021/07/18 10:54:57;;;;;;;17.65;16.15;;;;;;;24.53;71.33;100386.56;4963244;28;102408;-50
2021/07/18 10:57:30;;;;;;;17.23;15.73;;;;;;;24.52;71.66;100396.06;4947008;28;103872;-50
2021/07/18 11:00:18;;;;;;;17.23;15.82;;;;;;;24.51;71.90;100386.13;4946743;28;102085;-50
2021/07/18 11:02:45;;;;;;;17.70;16.20;;;;;;;24.49;71.54;100385.72;4946805;28;102182;-50
2021/07/18 11:05:16;;;;;;;17.90;16.20;;;;;;;24.50;71.74;100387.31;4935730;28;102772;-51
2021/07/18 11:07:54;;;;;;;18.30;16.70;;;;;;;24.49;71.64;100379.31;4951966;28;103997;-51
2021/07/18 11:10:23;;;;;;;18.42;16.83;;;;;;;24.47;71.84;100382.50;4952348;28;102504;-50
2021/07/18 11:13:00;;;;;;;18.80;17.20;;;;;;;24.47;71.67;100379.72;4949772;28;102537;-50
2021/07/18 11:15:34;;;;;;;19.08;17.27;;;;;;;24.47;71.92;100376.94;4951711;28;102803;-50